sensor_id;sensor_type;location;lat;lon;timestamp;temperature;humidity
46117;DHT22;32591;48.102;11.772;2022-12-29T00:01:37;4.10;99.90
46117;DHT22;32591;48.102;11.772;2022-12-29T00:04:05;4.10;99.90
46117;DHT22;32591;48.102;11.772;2022-12-29T00:06:32;4.20;99.90
46117;DHT22;32591;48.102;11.772;2022-12-29T00:08:59;4.20;99.90
46117;DHT22;32591;48.102;11.772;2022-12-29T00:11:26;4.20;99.90
46117;DHT22;32591;48.102;11.772;2022-12-29T00:13:54;4.10;99.90
46117;DHT22;32591;48.102;11.772;2022-12-29T00:16:43;4.10;99.90
46117;DHT22;32591;48.102;11.772;2022-12-29T00:19:12;4.10;99.90
46117;DHT22;32591;48.102;11.772;2022-12-29T00:21:53;4.10;99.90
46117;DHT22;32591;48.102;11.772;2022-12-29T00:24:37;4.20;99.90
46117;DHT22;32591;48.102;11.772;2022-12-29T00:27:22;4.20;99.90
46117;DHT22;32591;48.102;11.772;2022-12-29T00:30:09;4.20;99.90
46117;DHT22;32591;48.102;11.772;2022-12-29T00:32:56;4.20;99.90
46117;DHT22;32591;48.102;11.772;2022-12-29T00:35:45;4.20;99.90
46117;DHT22;32591;48.102;11.772;2022-12-29T00:38:13;4.20;99.90
46117;DHT22;32591;48.102;11.772;2022-12-29T00:40:58;4.20;99.90
46117;DHT22;32591;48.102;11.772;2022-12-29T00:43:43;4.20;99.90
46117;DHT22;32591;48.102;11.772;2022-12-29T00:46:28;4.20;99.90
46117;DHT22;32591;48.102;11.772;2022-12-29T00:48:56;4.20;99.90
46117;DHT22;32591;48.102;11.772;2022-12-29T00:51:41;4.20;99.90
46117;DHT22;32591;48.102;11.772;2022-12-29T00:54:08;4.30;99.90
46117;DHT22;32591;48.102;11.772;2022-12-29T00:56:35;4.30;99.90
46117;DHT22;32591;48.102;11.772;2022-12-29T00:59:02;4.30;99.90
46117;DHT22;32591;48.102;11.772;2022-12-29T01:01:30;4.30;99.90
46117;DHT22;32591;48.102;11.772;2022-12-29T01:03:58;4.30;99.90
46117;DHT22;32591;48.102;11.772;2022-12-29T01:06:25;4.30;99.90
46117;DHT22;32591;48.102;11.772;2022-12-29T01:08:53;4.30;99.90
46117;DHT22;32591;48.102;11.772;2022-12-29T01:11:33;4.30;99.90
46117;DHT22;32591;48.102;11.772;2022-12-29T01:14:00;4.30;99.90
46117;DHT22;32591;48.102;11.772;2022-12-29T01:16:27;4.30;99.90
46117;DHT22;32591;48.102;11.772;2022-12-29T01:18:54;4.20;99.90
46117;DHT22;32591;48.102;11.772;2022-12-29T01:21:22;4.20;99.90
46117;DHT22;32591;48.102;11.772;2022-12-29T01:23:50;4.20;99.90
46117;DHT22;32591;48.102;11.772;2022-12-29T01:26:17;4.20;99.90
46117;DHT22;32591;48.102;11.772;2022-12-29T01:28:45;4.20;99.90
46117;DHT22;32591;48.102;11.772;2022-12-29T01:31:14;4.20;99.90
46117;DHT22;32591;48.102;11.772;2022-12-29T01:33:41;4.20;99.90
46117;DHT22;32591;48.102;11.772;2022-12-29T01:36:11;4.20;99.90
46117;DHT22;32591;48.102;11.772;2022-12-29T01:38:41;4.20;99.90
46117;DHT22;32591;48.102;11.772;2022-12-29T01:41:10;4.20;99.90
46117;DHT22;32591;48.102;11.772;2022-12-29T01:43:43;4.20;99.90
46117;DHT22;32591;48.102;11.772;2022-12-29T01:46:18;4.20;99.90
46117;DHT22;32591;48.102;11.772;2022-12-29T01:48:51;4.30;99.90
46117;DHT22;32591;48.102;11.772;2022-12-29T01:51:22;4.30;99.90
46117;DHT22;32591;48.102;11.772;2022-12-29T01:53:52;4.30;99.90
46117;DHT22;32591;48.102;11.772;2022-12-29T01:56:20;4.30;99.90
46117;DHT22;32591;48.102;11.772;2022-12-29T01:58:51;4.30;99.90
46117;DHT22;32591;48.102;11.772;2022-12-29T02:01:20;4.30;99.90
46117;DHT22;32591;48.102;11.772;2022-12-29T02:03:48;4.30;99.90
46117;DHT22;32591;48.102;11.772;2022-12-29T02:06:21;4.30;99.90
46117;DHT22;32591;48.102;11.772;2022-12-29T02:08:52;4.30;99.90
46117;DHT22;32591;48.102;11.772;2022-12-29T02:11:21;4.30;99.90
46117;DHT22;32591;48.102;11.772;2022-12-29T02:13:50;4.30;99.90
46117;DHT22;32591;48.102;11.772;2022-12-29T02:16:29;4.20;99.90
46117;DHT22;32591;48.102;11.772;2022-12-29T02:19:15;4.20;99.90
46117;DHT22;32591;48.102;11.772;2022-12-29T02:22:10;4.20;99.90
46117;DHT22;32591;48.102;11.772;2022-12-29T02:27:52;4.20;99.90
46117;DHT22;32591;48.102;11.772;2022-12-29T02:30:40;4.10;99.90
46117;DHT22;32591;48.102;11.772;2022-12-29T02:33:18;4.10;99.90
46117;DHT22;32591;48.102;11.772;2022-12-29T02:35:55;4.10;99.90
46117;DHT22;32591;48.102;11.772;2022-12-29T02:38:35;4.10;99.90
46117;DHT22;32591;48.102;11.772;2022-12-29T02:41:18;4.10;99.90
46117;DHT22;32591;48.102;11.772;2022-12-29T02:43:50;4.20;99.90
46117;DHT22;32591;48.102;11.772;2022-12-29T02:46:26;4.20;99.90
46117;DHT22;32591;48.102;11.772;2022-12-29T02:49:03;4.20;99.90
46117;DHT22;32591;48.102;11.772;2022-12-29T02:51:38;4.10;99.90
46117;DHT22;32591;48.102;11.772;2022-12-29T02:54:09;4.10;99.90
46117;DHT22;32591;48.102;11.772;2022-12-29T02:56:54;4.20;99.90
46117;DHT22;32591;48.102;11.772;2022-12-29T02:59:21;4.20;99.90
46117;DHT22;32591;48.102;11.772;2022-12-29T03:02:16;4.20;99.90
46117;DHT22;32591;48.102;11.772;2022-12-29T03:05:12;4.20;99.90
46117;DHT22;32591;48.102;11.772;2022-12-29T03:07:48;4.20;99.90
46117;DHT22;32591;48.102;11.772;2022-12-29T03:10:30;4.20;99.90
46117;DHT22;32591;48.102;11.772;2022-12-29T03:13:08;4.30;99.90
46117;DHT22;32591;48.102;11.772;2022-12-29T03:16:04;4.30;99.90
46117;DHT22;32591;48.102;11.772;2022-12-29T03:18:41;4.30;99.90
46117;DHT22;32591;48.102;11.772;2022-12-29T03:21:16;4.20;99.90
46117;DHT22;32591;48.102;11.772;2022-12-29T03:23:48;4.20;99.90
46117;DHT22;32591;48.102;11.772;2022-12-29T03:26:17;4.30;99.90
46117;DHT22;32591;48.102;11.772;2022-12-29T03:28:47;4.30;99.90
46117;DHT22;32591;48.102;11.772;2022-12-29T03:31:19;4.20;99.90
46117;DHT22;32591;48.102;11.772;2022-12-29T03:33:48;4.20;99.90
46117;DHT22;32591;48.102;11.772;2022-12-29T03:36:20;4.20;99.90
46117;DHT22;32591;48.102;11.772;2022-12-29T03:38:57;4.20;99.90
46117;DHT22;32591;48.102;11.772;2022-12-29T03:41:30;4.20;99.90
46117;DHT22;32591;48.102;11.772;2022-12-29T03:43:58;4.20;99.90
46117;DHT22;32591;48.102;11.772;2022-12-29T03:46:25;4.20;99.90
46117;DHT22;32591;48.102;11.772;2022-12-29T03:48:53;4.20;99.90
46117;DHT22;32591;48.102;11.772;2022-12-29T03:51:20;4.30;99.90
46117;DHT22;32591;48.102;11.772;2022-12-29T03:53:47;4.30;99.90
46117;DHT22;32591;48.102;11.772;2022-12-29T03:56:14;4.30;99.90
46117;DHT22;32591;48.102;11.772;2022-12-29T03:58:41;4.30;99.90
46117;DHT22;32591;48.102;11.772;2022-12-29T04:01:07;4.30;99.90
46117;DHT22;32591;48.102;11.772;2022-12-29T04:03:34;4.40;99.90
46117;DHT22;32591;48.102;11.772;2022-12-29T04:06:03;4.40;99.90
46117;DHT22;32591;48.102;11.772;2022-12-29T04:08:30;4.50;99.90
46117;DHT22;32591;48.102;11.772;2022-12-29T04:10:57;4.50;99.90
46117;DHT22;32591;48.102;11.772;2022-12-29T04:13:24;4.50;99.90
46117;DHT22;32591;48.102;11.772;2022-12-29T04:15:52;4.50;99.90
46117;DHT22;32591;48.102;11.772;2022-12-29T04:18:18;4.60;99.90
46117;DHT22;32591;48.102;11.772;2022-12-29T04:20:45;4.60;99.90
46117;DHT22;32591;48.102;11.772;2022-12-29T04:23:31;4.60;99.90
46117;DHT22;32591;48.102;11.772;2022-12-29T04:25:59;4.70;99.90
46117;DHT22;32591;48.102;11.772;2022-12-29T04:28:26;4.70;99.90
46117;DHT22;32591;48.102;11.772;2022-12-29T04:30:53;4.80;99.90
46117;DHT22;32591;48.102;11.772;2022-12-29T04:33:21;4.80;99.90
46117;DHT22;32591;48.102;11.772;2022-12-29T04:35:49;4.80;99.90
46117;DHT22;32591;48.102;11.772;2022-12-29T04:38:18;4.90;99.90
46117;DHT22;32591;48.102;11.772;2022-12-29T04:40:46;4.90;99.90
46117;DHT22;32591;48.102;11.772;2022-12-29T04:43:14;4.90;99.90
46117;DHT22;32591;48.102;11.772;2022-12-29T04:45:43;4.90;99.90
46117;DHT22;32591;48.102;11.772;2022-12-29T04:48:11;4.90;99.90
46117;DHT22;32591;48.102;11.772;2022-12-29T04:50:38;5.00;99.90
46117;DHT22;32591;48.102;11.772;2022-12-29T04:53:06;5.00;99.90
46117;DHT22;32591;48.102;11.772;2022-12-29T04:55:33;5.00;99.90
46117;DHT22;32591;48.102;11.772;2022-12-29T04:58:02;5.00;99.90
46117;DHT22;32591;48.102;11.772;2022-12-29T05:00:29;5.00;99.90
46117;DHT22;32591;48.102;11.772;2022-12-29T05:02:56;5.10;99.90
46117;DHT22;32591;48.102;11.772;2022-12-29T05:05:23;5.10;99.90
46117;DHT22;32591;48.102;11.772;2022-12-29T05:07:49;5.20;99.90
46117;DHT22;32591;48.102;11.772;2022-12-29T05:10:17;5.20;99.90
46117;DHT22;32591;48.102;11.772;2022-12-29T05:12:44;5.20;99.90
46117;DHT22;32591;48.102;11.772;2022-12-29T05:15:12;5.20;99.90
46117;DHT22;32591;48.102;11.772;2022-12-29T05:17:38;5.20;99.90
46117;DHT22;32591;48.102;11.772;2022-12-29T05:20:07;5.20;99.90
46117;DHT22;32591;48.102;11.772;2022-12-29T05:22:34;5.30;99.90
46117;DHT22;32591;48.102;11.772;2022-12-29T05:25:01;5.30;99.90
46117;DHT22;32591;48.102;11.772;2022-12-29T05:27:34;5.40;99.90
46117;DHT22;32591;48.102;11.772;2022-12-29T05:30:01;5.40;99.90
46117;DHT22;32591;48.102;11.772;2022-12-29T05:32:30;5.40;99.90
46117;DHT22;32591;48.102;11.772;2022-12-29T05:34:57;5.40;99.90
46117;DHT22;32591;48.102;11.772;2022-12-29T05:37:24;5.50;99.90
46117;DHT22;32591;48.102;11.772;2022-12-29T05:39:50;5.50;99.90
46117;DHT22;32591;48.102;11.772;2022-12-29T05:42:17;5.50;99.90
46117;DHT22;32591;48.102;11.772;2022-12-29T05:44:44;5.50;99.90
46117;DHT22;32591;48.102;11.772;2022-12-29T05:47:11;5.60;99.90
46117;DHT22;32591;48.102;11.772;2022-12-29T05:49:39;5.60;99.90
46117;DHT22;32591;48.102;11.772;2022-12-29T05:52:06;5.60;99.90
46117;DHT22;32591;48.102;11.772;2022-12-29T05:54:33;5.70;99.90
46117;DHT22;32591;48.102;11.772;2022-12-29T05:57:00;5.70;99.90
46117;DHT22;32591;48.102;11.772;2022-12-29T05:59:26;5.70;99.90
46117;DHT22;32591;48.102;11.772;2022-12-29T06:01:53;5.80;99.90
46117;DHT22;32591;48.102;11.772;2022-12-29T06:04:20;5.70;99.90
46117;DHT22;32591;48.102;11.772;2022-12-29T06:06:48;5.60;99.90
46117;DHT22;32591;48.102;11.772;2022-12-29T06:09:16;5.60;99.90
46117;DHT22;32591;48.102;11.772;2022-12-29T06:11:43;5.60;99.90
46117;DHT22;32591;48.102;11.772;2022-12-29T06:14:09;5.60;99.90
46117;DHT22;32591;48.102;11.772;2022-12-29T06:16:36;5.60;99.90
46117;DHT22;32591;48.102;11.772;2022-12-29T06:19:03;5.70;99.90
46117;DHT22;32591;48.102;11.772;2022-12-29T06:21:30;5.70;99.90
46117;DHT22;32591;48.102;11.772;2022-12-29T06:23:59;5.70;99.90
46117;DHT22;32591;48.102;11.772;2022-12-29T06:26:26;5.80;99.90
46117;DHT22;32591;48.102;11.772;2022-12-29T06:28:53;5.70;99.90
46117;DHT22;32591;48.102;11.772;2022-12-29T06:31:20;5.60;99.90
46117;DHT22;32591;48.102;11.772;2022-12-29T06:33:47;5.70;99.90
46117;DHT22;32591;48.102;11.772;2022-12-29T06:36:14;5.70;99.90
46117;DHT22;32591;48.102;11.772;2022-12-29T06:38:41;5.80;99.90
46117;DHT22;32591;48.102;11.772;2022-12-29T06:41:09;5.70;99.90
46117;DHT22;32591;48.102;11.772;2022-12-29T06:43:36;5.80;99.90
46117;DHT22;32591;48.102;11.772;2022-12-29T06:46:04;5.80;99.90
46117;DHT22;32591;48.102;11.772;2022-12-29T06:48:30;5.90;99.90
46117;DHT22;32591;48.102;11.772;2022-12-29T06:50:57;5.90;99.90
46117;DHT22;32591;48.102;11.772;2022-12-29T06:53:24;5.90;99.90
46117;DHT22;32591;48.102;11.772;2022-12-29T06:55:51;5.90;99.90
46117;DHT22;32591;48.102;11.772;2022-12-29T06:58:20;5.80;99.90
46117;DHT22;32591;48.102;11.772;2022-12-29T07:00:47;5.90;99.90
46117;DHT22;32591;48.102;11.772;2022-12-29T07:03:14;5.80;99.90
46117;DHT22;32591;48.102;11.772;2022-12-29T07:05:41;5.80;99.90
46117;DHT22;32591;48.102;11.772;2022-12-29T07:08:08;5.80;99.90
46117;DHT22;32591;48.102;11.772;2022-12-29T07:10:35;5.80;99.90
46117;DHT22;32591;48.102;11.772;2022-12-29T07:13:02;5.80;99.90
46117;DHT22;32591;48.102;11.772;2022-12-29T07:15:30;5.90;99.90
46117;DHT22;32591;48.102;11.772;2022-12-29T07:17:58;5.90;99.90
46117;DHT22;32591;48.102;11.772;2022-12-29T07:20:25;5.80;99.90
46117;DHT22;32591;48.102;11.772;2022-12-29T07:22:52;5.70;99.90
46117;DHT22;32591;48.102;11.772;2022-12-29T07:25:19;5.70;99.90
46117;DHT22;32591;48.102;11.772;2022-12-29T07:27:46;5.60;99.90
46117;DHT22;32591;48.102;11.772;2022-12-29T07:30:14;5.70;99.90
46117;DHT22;32591;48.102;11.772;2022-12-29T07:32:42;5.70;99.90
46117;DHT22;32591;48.102;11.772;2022-12-29T07:35:09;5.70;99.90
46117;DHT22;32591;48.102;11.772;2022-12-29T07:37:36;5.80;99.90
46117;DHT22;32591;48.102;11.772;2022-12-29T07:40:04;5.90;99.90
46117;DHT22;32591;48.102;11.772;2022-12-29T07:42:32;5.80;99.90
46117;DHT22;32591;48.102;11.772;2022-12-29T07:44:59;5.90;99.90
46117;DHT22;32591;48.102;11.772;2022-12-29T07:47:25;5.90;99.90
46117;DHT22;32591;48.102;11.772;2022-12-29T07:49:54;6.00;99.90
46117;DHT22;32591;48.102;11.772;2022-12-29T07:52:21;6.10;99.90
46117;DHT22;32591;48.102;11.772;2022-12-29T07:54:47;6.20;99.90
46117;DHT22;32591;48.102;11.772;2022-12-29T07:57:14;6.30;99.90
46117;DHT22;32591;48.102;11.772;2022-12-29T07:59:41;6.30;99.90
46117;DHT22;32591;48.102;11.772;2022-12-29T08:02:09;6.30;99.90
46117;DHT22;32591;48.102;11.772;2022-12-29T08:04:37;6.20;99.90
46117;DHT22;32591;48.102;11.772;2022-12-29T08:07:05;6.20;99.90
46117;DHT22;32591;48.102;11.772;2022-12-29T08:09:32;6.10;99.90
46117;DHT22;32591;48.102;11.772;2022-12-29T08:11:59;6.10;99.90
46117;DHT22;32591;48.102;11.772;2022-12-29T08:14:25;6.20;99.90
46117;DHT22;32591;48.102;11.772;2022-12-29T08:16:52;6.20;99.90
46117;DHT22;32591;48.102;11.772;2022-12-29T08:19:19;6.20;99.90
46117;DHT22;32591;48.102;11.772;2022-12-29T08:21:46;6.70;99.90
46117;DHT22;32591;48.102;11.772;2022-12-29T08:24:15;6.30;99.90
46117;DHT22;32591;48.102;11.772;2022-12-29T08:26:42;6.60;99.90
46117;DHT22;32591;48.102;11.772;2022-12-29T08:29:08;6.40;99.90
46117;DHT22;32591;48.102;11.772;2022-12-29T08:31:35;6.40;99.90
46117;DHT22;32591;48.102;11.772;2022-12-29T08:34:03;6.50;99.90
46117;DHT22;32591;48.102;11.772;2022-12-29T08:36:31;6.50;99.90
46117;DHT22;32591;48.102;11.772;2022-12-29T08:38:58;6.60;99.90
46117;DHT22;32591;48.102;11.772;2022-12-29T08:41:26;6.70;99.90
46117;DHT22;32591;48.102;11.772;2022-12-29T08:43:53;6.70;99.90
46117;DHT22;32591;48.102;11.772;2022-12-29T08:46:20;6.80;99.90
46117;DHT22;32591;48.102;11.772;2022-12-29T08:48:47;6.90;99.90
46117;DHT22;32591;48.102;11.772;2022-12-29T08:51:14;7.00;99.90
46117;DHT22;32591;48.102;11.772;2022-12-29T08:53:42;7.00;99.90
46117;DHT22;32591;48.102;11.772;2022-12-29T08:56:09;7.00;99.90
46117;DHT22;32591;48.102;11.772;2022-12-29T08:58:38;7.10;99.90
46117;DHT22;32591;48.102;11.772;2022-12-29T09:01:06;7.10;99.90
46117;DHT22;32591;48.102;11.772;2022-12-29T09:03:33;7.20;99.90
46117;DHT22;32591;48.102;11.772;2022-12-29T09:06:00;7.20;99.90
46117;DHT22;32591;48.102;11.772;2022-12-29T09:08:27;7.30;99.90
46117;DHT22;32591;48.102;11.772;2022-12-29T09:10:54;7.40;99.90
46117;DHT22;32591;48.102;11.772;2022-12-29T09:13:20;7.30;99.90
46117;DHT22;32591;48.102;11.772;2022-12-29T09:15:57;7.30;99.90
46117;DHT22;32591;48.102;11.772;2022-12-29T09:18:24;7.40;99.90
46117;DHT22;32591;48.102;11.772;2022-12-29T09:20:56;7.50;99.90
46117;DHT22;32591;48.102;11.772;2022-12-29T09:23:24;7.50;99.90
46117;DHT22;32591;48.102;11.772;2022-12-29T09:25:51;7.60;99.90
46117;DHT22;32591;48.102;11.772;2022-12-29T09:28:18;7.60;99.90
46117;DHT22;32591;48.102;11.772;2022-12-29T09:30:45;7.70;99.90
46117;DHT22;32591;48.102;11.772;2022-12-29T09:33:13;7.80;99.90
46117;DHT22;32591;48.102;11.772;2022-12-29T09:35:42;7.80;99.90
46117;DHT22;32591;48.102;11.772;2022-12-29T09:38:09;7.90;99.90
46117;DHT22;32591;48.102;11.772;2022-12-29T09:40:38;8.00;99.90
46117;DHT22;32591;48.102;11.772;2022-12-29T09:43:24;8.00;99.90
46117;DHT22;32591;48.102;11.772;2022-12-29T09:46:08;8.00;99.80
46117;DHT22;32591;48.102;11.772;2022-12-29T09:48:45;8.00;99.90
46117;DHT22;32591;48.102;11.772;2022-12-29T09:51:17;8.00;99.90
46117;DHT22;32591;48.102;11.772;2022-12-29T09:53:53;8.10;99.90
46117;DHT22;32591;48.102;11.772;2022-12-29T09:56:25;8.20;99.20
46117;DHT22;32591;48.102;11.772;2022-12-29T09:58:57;8.30;98.80
46117;DHT22;32591;48.102;11.772;2022-12-29T10:01:31;8.50;98.10
46117;DHT22;32591;48.102;11.772;2022-12-29T10:04:02;8.70;97.60
46117;DHT22;32591;48.102;11.772;2022-12-29T10:06:34;8.80;96.20
46117;DHT22;32591;48.102;11.772;2022-12-29T10:09:12;8.90;94.70
46117;DHT22;32591;48.102;11.772;2022-12-29T10:11:57;9.00;93.30
46117;DHT22;32591;48.102;11.772;2022-12-29T10:14:41;9.10;92.60
46117;DHT22;32591;48.102;11.772;2022-12-29T10:17:24;9.20;92.80
46117;DHT22;32591;48.102;11.772;2022-12-29T10:20:14;9.20;90.80
46117;DHT22;32591;48.102;11.772;2022-12-29T10:23:10;9.30;91.50
46117;DHT22;32591;48.102;11.772;2022-12-29T10:25:47;9.40;90.20
46117;DHT22;32591;48.102;11.772;2022-12-29T10:28:19;9.40;90.20
46117;DHT22;32591;48.102;11.772;2022-12-29T10:30:48;9.60;89.70
46117;DHT22;32591;48.102;11.772;2022-12-29T10:33:19;9.50;89.00
46117;DHT22;32591;48.102;11.772;2022-12-29T10:35:51;9.60;88.70
46117;DHT22;32591;48.102;11.772;2022-12-29T10:38:25;9.60;88.70
46117;DHT22;32591;48.102;11.772;2022-12-29T10:40:59;9.70;89.30
46117;DHT22;32591;48.102;11.772;2022-12-29T10:43:28;9.70;87.30
46117;DHT22;32591;48.102;11.772;2022-12-29T10:45:59;9.80;87.70
46117;DHT22;32591;48.102;11.772;2022-12-29T10:48:30;9.80;87.20
46117;DHT22;32591;48.102;11.772;2022-12-29T10:51:02;9.90;88.10
46117;DHT22;32591;48.102;11.772;2022-12-29T10:53:35;9.90;86.00
46117;DHT22;32591;48.102;11.772;2022-12-29T10:56:27;10.00;85.80
46117;DHT22;32591;48.102;11.772;2022-12-29T10:59:00;10.10;85.00
46117;DHT22;32591;48.102;11.772;2022-12-29T11:01:38;10.10;84.60
46117;DHT22;32591;48.102;11.772;2022-12-29T11:04:25;10.30;83.80
46117;DHT22;32591;48.102;11.772;2022-12-29T11:07:00;10.30;82.60
46117;DHT22;32591;48.102;11.772;2022-12-29T11:09:29;10.40;81.90
46117;DHT22;32591;48.102;11.772;2022-12-29T11:11:58;10.60;80.70
46117;DHT22;32591;48.102;11.772;2022-12-29T11:14:28;10.70;79.60
46117;DHT22;32591;48.102;11.772;2022-12-29T11:16:57;10.80;78.30
46117;DHT22;32591;48.102;11.772;2022-12-29T11:19:27;11.00;80.90
46117;DHT22;32591;48.102;11.772;2022-12-29T11:21:54;11.00;78.40
46117;DHT22;32591;48.102;11.772;2022-12-29T11:24:25;11.10;75.40
46117;DHT22;32591;48.102;11.772;2022-12-29T11:26:54;11.20;75.20
46117;DHT22;32591;48.102;11.772;2022-12-29T11:29:25;11.30;75.40
46117;DHT22;32591;48.102;11.772;2022-12-29T11:31:55;11.50;73.90
46117;DHT22;32591;48.102;11.772;2022-12-29T11:34:25;11.50;74.50
46117;DHT22;32591;48.102;11.772;2022-12-29T11:37:00;11.60;72.20
46117;DHT22;32591;48.102;11.772;2022-12-29T11:39:34;11.60;71.40
46117;DHT22;32591;48.102;11.772;2022-12-29T11:42:11;11.60;70.90
46117;DHT22;32591;48.102;11.772;2022-12-29T11:44:44;11.60;70.80
46117;DHT22;32591;48.102;11.772;2022-12-29T11:47:21;11.70;71.30
46117;DHT22;32591;48.102;11.772;2022-12-29T11:49:53;11.70;71.00
46117;DHT22;32591;48.102;11.772;2022-12-29T11:52:24;11.70;71.80
46117;DHT22;32591;48.102;11.772;2022-12-29T11:54:54;11.90;70.50
46117;DHT22;32591;48.102;11.772;2022-12-29T11:57:23;12.00;69.30
46117;DHT22;32591;48.102;11.772;2022-12-29T11:59:51;12.10;68.50
46117;DHT22;32591;48.102;11.772;2022-12-29T12:02:42;12.20;66.10
46117;DHT22;32591;48.102;11.772;2022-12-29T12:05:25;12.30;66.10
46117;DHT22;32591;48.102;11.772;2022-12-29T12:08:01;12.40;64.10
46117;DHT22;32591;48.102;11.772;2022-12-29T12:10:34;12.40;65.10
46117;DHT22;32591;48.102;11.772;2022-12-29T12:13:17;12.50;63.20
46117;DHT22;32591;48.102;11.772;2022-12-29T12:15:50;12.50;62.70
46117;DHT22;32591;48.102;11.772;2022-12-29T12:18:30;12.60;62.00
46117;DHT22;32591;48.102;11.772;2022-12-29T12:21:05;12.60;61.90
46117;DHT22;32591;48.102;11.772;2022-12-29T12:23:38;12.60;62.50
46117;DHT22;32591;48.102;11.772;2022-12-29T12:26:12;12.60;61.00
46117;DHT22;32591;48.102;11.772;2022-12-29T12:28:48;12.60;61.10
46117;DHT22;32591;48.102;11.772;2022-12-29T12:31:24;12.70;60.20
46117;DHT22;32591;48.102;11.772;2022-12-29T12:34:00;12.70;59.20
46117;DHT22;32591;48.102;11.772;2022-12-29T12:36:44;12.80;59.60
46117;DHT22;32591;48.102;11.772;2022-12-29T12:39:26;12.80;59.40
46117;DHT22;32591;48.102;11.772;2022-12-29T12:42:06;12.90;59.20
46117;DHT22;32591;48.102;11.772;2022-12-29T12:44:51;13.00;58.70
46117;DHT22;32591;48.102;11.772;2022-12-29T12:47:54;13.00;59.40
46117;DHT22;32591;48.102;11.772;2022-12-29T12:50:41;13.10;58.80
46117;DHT22;32591;48.102;11.772;2022-12-29T12:53:21;13.10;58.80
46117;DHT22;32591;48.102;11.772;2022-12-29T12:56:02;13.20;59.70
46117;DHT22;32591;48.102;11.772;2022-12-29T12:58:43;13.20;58.80
46117;DHT22;32591;48.102;11.772;2022-12-29T13:01:24;13.20;57.50
46117;DHT22;32591;48.102;11.772;2022-12-29T13:07:17;13.20;58.80
46117;DHT22;32591;48.102;11.772;2022-12-29T13:09:58;13.10;59.10
46117;DHT22;32591;48.102;11.772;2022-12-29T13:12:51;13.10;59.90
46117;DHT22;32591;48.102;11.772;2022-12-29T13:15:34;13.00;59.40
46117;DHT22;32591;48.102;11.772;2022-12-29T13:18:13;12.80;60.80
46117;DHT22;32591;48.102;11.772;2022-12-29T13:20:50;12.80;60.20
46117;DHT22;32591;48.102;11.772;2022-12-29T13:23:24;12.70;60.70
46117;DHT22;32591;48.102;11.772;2022-12-29T13:25:59;12.70;61.00
46117;DHT22;32591;48.102;11.772;2022-12-29T13:28:35;12.60;61.40
46117;DHT22;32591;48.102;11.772;2022-12-29T13:31:23;12.60;60.70
46117;DHT22;32591;48.102;11.772;2022-12-29T13:34:00;12.50;61.70
46117;DHT22;32591;48.102;11.772;2022-12-29T13:36:36;12.40;62.70
46117;DHT22;32591;48.102;11.772;2022-12-29T13:39:10;12.40;63.10
46117;DHT22;32591;48.102;11.772;2022-12-29T13:41:43;12.40;62.90
46117;DHT22;32591;48.102;11.772;2022-12-29T13:44:15;12.40;62.40
46117;DHT22;32591;48.102;11.772;2022-12-29T13:46:46;12.50;62.80
46117;DHT22;32591;48.102;11.772;2022-12-29T13:49:17;12.40;63.90
46117;DHT22;32591;48.102;11.772;2022-12-29T13:51:48;12.40;63.80
46117;DHT22;32591;48.102;11.772;2022-12-29T13:54:27;12.40;63.90
46117;DHT22;32591;48.102;11.772;2022-12-29T13:57:03;12.30;64.50
46117;DHT22;32591;48.102;11.772;2022-12-29T13:59:40;12.30;65.90
46117;DHT22;32591;48.102;11.772;2022-12-29T14:02:21;12.20;66.70
46117;DHT22;32591;48.102;11.772;2022-12-29T14:04:59;12.20;66.60
46117;DHT22;32591;48.102;11.772;2022-12-29T14:07:27;12.10;66.40
46117;DHT22;32591;48.102;11.772;2022-12-29T14:09:56;12.00;66.30
46117;DHT22;32591;48.102;11.772;2022-12-29T14:12:32;12.00;66.90
46117;DHT22;32591;48.102;11.772;2022-12-29T14:15:06;11.90;67.60
46117;DHT22;32591;48.102;11.772;2022-12-29T14:18:03;11.80;68.20
46117;DHT22;32591;48.102;11.772;2022-12-29T14:20:32;11.70;67.70
46117;DHT22;32591;48.102;11.772;2022-12-29T14:23:14;11.70;69.10
46117;DHT22;32591;48.102;11.772;2022-12-29T14:25:54;11.60;68.90
46117;DHT22;32591;48.102;11.772;2022-12-29T14:28:24;11.60;69.10
46117;DHT22;32591;48.102;11.772;2022-12-29T14:30:53;11.70;70.60
46117;DHT22;32591;48.102;11.772;2022-12-29T14:33:25;11.60;70.40
46117;DHT22;32591;48.102;11.772;2022-12-29T14:35:54;11.70;71.00
46117;DHT22;32591;48.102;11.772;2022-12-29T14:38:29;11.70;72.40
46117;DHT22;32591;48.102;11.772;2022-12-29T14:41:17;11.60;71.80
46117;DHT22;32591;48.102;11.772;2022-12-29T14:43:56;11.50;70.50
46117;DHT22;32591;48.102;11.772;2022-12-29T14:46:25;11.50;72.80
46117;DHT22;32591;48.102;11.772;2022-12-29T14:49:18;11.40;70.60
46117;DHT22;32591;48.102;11.772;2022-12-29T14:51:47;11.40;71.80
46117;DHT22;32591;48.102;11.772;2022-12-29T14:54:49;11.40;74.80
46117;DHT22;32591;48.102;11.772;2022-12-29T14:57:39;11.40;74.30
46117;DHT22;32591;48.102;11.772;2022-12-29T15:00:18;11.40;74.40
46117;DHT22;32591;48.102;11.772;2022-12-29T15:02:49;11.40;74.30
46117;DHT22;32591;48.102;11.772;2022-12-29T15:05:30;11.40;73.50
46117;DHT22;32591;48.102;11.772;2022-12-29T15:07:59;11.30;74.90
46117;DHT22;32591;48.102;11.772;2022-12-29T15:10:34;11.30;75.00
46117;DHT22;32591;48.102;11.772;2022-12-29T15:13:05;11.20;76.30
46117;DHT22;32591;48.102;11.772;2022-12-29T15:15:41;11.20;75.00
46117;DHT22;32591;48.102;11.772;2022-12-29T15:18:14;11.10;72.90
46117;DHT22;32591;48.102;11.772;2022-12-29T15:20:51;11.00;75.10
46117;DHT22;32591;48.102;11.772;2022-12-29T15:23:21;10.90;73.90
46117;DHT22;32591;48.102;11.772;2022-12-29T15:25:52;10.80;73.60
46117;DHT22;32591;48.102;11.772;2022-12-29T15:28:21;10.70;75.60
46117;DHT22;32591;48.102;11.772;2022-12-29T15:30:53;10.60;74.90
46117;DHT22;32591;48.102;11.772;2022-12-29T15:33:23;10.50;75.30
46117;DHT22;32591;48.102;11.772;2022-12-29T15:35:54;10.40;77.20
46117;DHT22;32591;48.102;11.772;2022-12-29T15:38:24;10.40;76.70
46117;DHT22;32591;48.102;11.772;2022-12-29T15:40:53;10.40;79.50
46117;DHT22;32591;48.102;11.772;2022-12-29T15:43:35;10.40;79.80
46117;DHT22;32591;48.102;11.772;2022-12-29T15:46:10;10.40;81.20
46117;DHT22;32591;48.102;11.772;2022-12-29T15:48:38;10.50;84.00
46117;DHT22;32591;48.102;11.772;2022-12-29T15:51:17;10.40;84.30
46117;DHT22;32591;48.102;11.772;2022-12-29T15:53:47;10.30;82.80
46117;DHT22;32591;48.102;11.772;2022-12-29T15:56:16;10.30;84.50
46117;DHT22;32591;48.102;11.772;2022-12-29T15:58:44;10.10;84.80
46117;DHT22;32591;48.102;11.772;2022-12-29T16:01:19;9.90;85.60
46117;DHT22;32591;48.102;11.772;2022-12-29T16:03:50;9.60;87.00
46117;DHT22;32591;48.102;11.772;2022-12-29T16:06:29;9.70;89.20